Vremea acum in Blaj - Romania

Vrei sa afli care e starea vremii acum in Alba - Romania? Dorim sa iti furnizam starea vremii pentru Alba - Romania. Starea vremii Alba - Romania pentru astazi.

Vremea acum in Blaj

Temperatura: 28 °C

Se simte ca: 28.8 °C
Innorat: 50 %
Precipitatii: 27 %
Presiune atmosferica: 1017 hPa
Umiditate: 51%
Vizibilitate: 10 km
Vantul bate din NNE cu 9 km/h

Evolutia vremii in Blaj pe ore

Ora: 15:00
Ploi uşoare şi de scurtă durată
Temperatura: 27.3°C
Sansa de precipitatii: 27%
Ora Descriere Temp Se simte Precipitatii Umiditate Vant
00:00Parțial noros21.5°21.5°52%85%SSE 1.4 KM/H
01:00Ploi pe porţiuni în apropiere19.9°19.9°26%86%SSE 1.4 KM/H
02:00Parțial noros18.2°18.2°0%87%SSE 1.8 KM/H
03:00Ploi pe porţiuni în apropiere17.9°17.9°29%88%SSW 1.4 KM/H
04:00Parțial noros17.5°17.5°58%89%SW 1.1 KM/H
05:00Ploi pe porţiuni în apropiere17.2°17.2°87%89%WSW 0.7 KM/H
06:00Parțial noros18.7°18.7°58%86%SSW 1.4 KM/H
07:00Ploi pe porţiuni în apropiere20.2°20.2°29%83%SSE 2.2 KM/H
08:00Parțial noros21.7°21.7°0%79%E 2.9 KM/H
09:00Ploi pe porţiuni în apropiere23°25.2°20%74%E 4.7 KM/H
10:00Parțial noros24.2°26°40%69%E 6.1 KM/H
11:00Ploi pe porţiuni în apropiere25.5°26.8°60%63%ESE 7.9 KM/H
12:00Parțial noros26.1°27.5°40%62%SE 6.1 KM/H
13:00Ploi pe porţiuni în apropiere26.8°28.1°20%60%SSE 4.3 KM/H
14:00Parțial noros27.4°28.8°0%59%S 2.5 KM/H
15:00Ploi uşoare şi de scurtă durată27.3°28.8°27%61%SSE 3.2 KM/H
16:00Parțial noros27.3°28.9°54%62%SSE 4 KM/H
17:00Ploi uşoare şi de scurtă durată27.2°28.9°81%64%SE 4.7 KM/H
18:00Parțial noros25.9°27.7°54%72%E 5.4 KM/H
19:00Ploi uşoare şi de scurtă durată24.5°26.4°27%80%NE 5.8 KM/H
20:00Parțial noros23.2°25.2°0%89%N 6.5 KM/H
21:00Burniță uşoară pe porțiuni22.5°25.2°27%87%NNE 5 KM/H
22:00Parțial noros21.9°21.9°55%85%NNE 4 KM/H
23:00Burniță uşoară pe porțiuni21.2°21.2°82%83%NNE 2.5 KM/H